Time;durP1;ratioP1;P1;durP2;ratioP2;P2;SDS_P1;SDS_P2;PMS_P1;PMS_P2;Temp;Humidity;BMP_temperature;BMP_pressure;BME280_temperature;BME280_humidity;BME280_pressure;Samples;Min_cycle;Max_cycle;Signal;HPM_P1;HPM_P2
2022/09/28 00:02:04;;;;;;;25.70;10.60;;;8.40;99.90;;;;;;4995603;28;20439;-76
2022/09/28 00:04:32;;;;;;;;;;;8.30;99.90;;;;;;4996721;28;20048;-75
2022/09/28 00:06:58;;;;;;;28.35;10.57;;;8.40;99.90;;;;;;4999581;28;20012;-76
2022/09/28 00:09:24;;;;;;;31.40;11.83;;;8.40;99.90;;;;;;5000839;28;20387;-74
2022/09/28 00:11:52;;;;;;;30.17;11.70;;;8.40;99.90;;;;;;5010059;28;20094;-79
2022/09/28 00:14:19;;;;;;;27.88;11.45;;;8.40;99.90;;;;;;5005319;28;20057;-80
2022/09/28 00:16:45;;;;;;;30.83;11.48;;;8.40;99.90;;;;;;4998093;28;20379;-77
2022/09/28 00:19:12;;;;;;;30.48;12.10;;;8.40;99.90;;;;;;4995630;28;20060;-83
2022/09/28 00:21:39;;;;;;;30.98;12.02;;;8.40;99.90;;;;;;4979697;28;20125;-76
2022/09/28 00:24:12;;;;;;;29.20;11.15;;;8.30;99.90;;;;;;4994766;28;20133;-76
2022/09/28 00:27:00;;;;;;;29.10;11.15;;;8.70;99.90;;;;;;4994737;28;20046;-77
2022/09/28 00:29:30;;;;;;;32.47;11.82;;;8.50;99.90;;;;;;4996509;28;20057;-75
2022/09/28 00:32:01;;;;;;;27.98;11.45;;;8.20;99.90;;;;;;4995508;28;20423;-76
2022/09/28 00:34:40;;;;;;;25.63;10.77;;;8.30;99.90;;;;;;4994944;28;20050;-78
2022/09/28 00:37:07;;;;;;;27.75;11.48;;;8.20;99.90;;;;;;4995884;28;20132;-76
2022/09/28 00:39:34;;;;;;;28.25;11.60;;;8.30;99.90;;;;;;4978682;28;20073;-76
2022/09/28 00:42:01;;;;;;;29.70;11.85;;;8.50;99.90;;;;;;4994621;28;20046;-75
2022/09/28 00:44:35;;;;;;;28.50;11.53;;;8.20;99.90;;;;;;4995136;28;20067;-75
2022/09/28 00:47:16;;;;;;;28.23;11.82;;;8.10;99.90;;;;;;4995875;28;20286;-78
2022/09/28 00:50:01;;;;;;;29.33;11.32;;;8.10;99.90;;;;;;4995225;28;20050;-75
2022/09/28 00:52:33;;;;;;;32.35;12.98;;;8.10;99.90;;;;;;4995577;28;20474;-75
2022/09/28 00:55:02;;;;;;;30.02;10.80;;;8.30;99.90;;;;;;4994005;28;20093;-76
2022/09/28 00:57:28;;;;;;;31.10;11.68;;;8.00;99.90;;;;;;4977987;28;20073;-75
2022/09/28 00:59:54;;;;;;;30.58;11.63;;;8.20;99.90;;;;;;4994030;28;20056;-77
2022/09/28 01:02:20;;;;;;;35.88;12.48;;;8.20;99.90;;;;;;4978579;28;20054;-77
2022/09/28 01:04:48;;;;;;;35.63;12.65;;;8.10;99.90;;;;;;4978621;28;20362;-77
2022/09/28 01:07:16;;;;;;;28.98;11.70;;;8.50;99.90;;;;;;4993980;28;20480;-75
2022/09/28 01:09:44;;;;;;;35.80;12.70;;;8.00;99.90;;;;;;4995132;28;20129;-76
2022/09/28 01:12:10;;;;;;;39.08;11.30;;;8.10;99.90;;;;;;4994051;28;20050;-76
2022/09/28 01:14:37;;;;;;;33.65;12.80;;;8.00;99.90;;;;;;4993852;28;20069;-75
2022/09/28 01:17:26;;;;;;;34.30;11.98;;;8.20;99.90;;;;;;4995425;28;20058;-76
2022/09/28 01:20:16;;;;;;;34.33;12.40;;;8.20;99.90;;;;;;4967998;28;20065;-78
2022/09/28 01:23:20;;;;;;;39.90;13.63;;;7.90;99.90;;;;;;4994712;28;20054;-77
2022/09/28 01:26:12;;;;;;;35.88;13.68;;;7.90;99.90;;;;;;4994029;28;20112;-75
2022/09/28 01:28:42;;;;;;;36.60;12.50;;;8.00;99.90;;;;;;4994815;28;20042;-75
2022/09/28 01:31:13;;;;;;;38.88;13.13;;;8.00;99.90;;;;;;4994141;28;20482;-75
2022/09/28 01:33:46;;;;;;;33.42;13.85;;;8.30;99.90;;;;;;4993729;28;20064;-75
2022/09/28 01:36:24;;;;;;;34.60;13.43;;;8.10;99.90;;;;;;4993714;28;20058;-76
2022/09/28 01:39:20;;;;;;;40.65;13.35;;;8.10;99.90;;;;;;4977506;28;20113;-76
2022/09/28 01:41:51;;;;;;;36.10;13.15;;;8.20;99.90;;;;;;4993972;28;20055;-75
2022/09/28 01:44:19;;;;;;;39.75;13.68;;;8.00;99.90;;;;;;4994698;28;20463;-74
2022/09/28 01:46:48;;;;;;;40.15;13.65;;;8.10;99.90;;;;;;4993069;28;20058;-76
2022/09/28 01:49:26;;;;;;;36.40;13.43;;;8.20;99.90;;;;;;4993624;28;20125;-75
2022/09/28 01:52:01;;;;;;;38.28;13.63;;;8.10;99.90;;;;;;4993232;28;20050;-74
2022/09/28 01:54:39;;;;;;;45.67;14.18;;;8.00;99.90;;;;;;4994129;28;20150;-76
2022/09/28 01:57:20;;;;;;;45.35;14.90;;;8.20;99.90;;;;;;4994180;28;20050;-74
2022/09/28 02:00:07;;;;;;;40.35;14.05;;;8.20;99.90;;;;;;4993001;28;20061;-78
2022/09/28 02:02:52;;;;;;;36.47;12.98;;;8.10;99.90;;;;;;4993665;28;20121;-75
2022/09/28 02:05:34;;;;;;;36.63;13.80;;;8.20;99.90;;;;;;4994506;28;20046;-77
2022/09/28 02:08:11;;;;;;;39.28;14.02;;;8.10;99.90;;;;;;4993405;28;20082;-77
2022/09/28 02:10:52;;;;;;;39.90;14.82;;;8.10;99.90;;;;;;4994980;28;20133;-76
2022/09/28 02:13:23;;;;;;;39.22;13.75;;;8.00;99.90;;;;;;4994469;28;20064;-76
2022/09/28 02:15:53;;;;;;;41.45;13.70;;;7.70;99.90;;;;;;4993621;28;20141;-77
2022/09/28 02:18:19;;;;;;;42.05;13.25;;;7.90;99.90;;;;;;4993877;28;20057;-75
2022/09/28 02:21:09;;;;;;;38.92;13.77;;;8.00;99.90;;;;;;4994441;28;20142;-75
2022/09/28 02:23:38;;;;;;;35.00;13.07;;;7.80;99.90;;;;;;4994038;28;20050;-77
2022/09/28 02:26:09;;;;;;;37.03;13.30;;;7.90;99.90;;;;;;4993787;28;20533;-75
2022/09/28 02:28:35;;;;;;;35.90;13.65;;;7.70;99.90;;;;;;4977431;28;20315;-75
2022/09/28 02:31:01;;;;;;;37.92;14.00;;;7.90;99.90;;;;;;4993936;28;20125;-74
2022/09/28 02:33:38;;;;;;;39.35;14.63;;;7.60;99.90;;;;;;4993006;28;20065;-79
2022/09/28 02:36:04;;;;;;;40.92;12.70;;;7.60;99.90;;;;;;4977040;28;20418;-78
2022/09/28 02:38:31;;;;;;;41.23;14.07;;;7.60;99.90;;;;;;4993047;28;20046;-76
2022/09/28 02:41:25;;;;;;;49.53;16.13;;;7.50;99.90;;;;;;4993189;28;20293;-75
2022/09/28 02:44:19;;;;;;;50.15;15.70;;;7.40;99.90;;;;;;4992175;28;20055;-76
2022/09/28 02:47:17;;;;;;;45.95;15.43;;;7.50;99.90;;;;;;4993929;28;20050;-80
2022/09/28 02:50:06;;;;;;;48.15;14.95;;;7.40;99.90;;;;;;4992480;28;20394;-75
2022/09/28 02:53:03;;;;;;;48.22;15.63;;;7.50;99.90;;;;;;4994034;28;20438;-75
2022/09/28 02:55:38;;;;;;;47.90;15.57;;;7.60;99.90;;;;;;4979563;28;20049;-80
2022/09/28 02:58:18;;;;;;;49.92;15.50;;;7.80;99.90;;;;;;4994926;28;20130;-75
2022/09/28 03:00:51;;;;;;;45.47;14.82;;;7.50;99.90;;;;;;5001177;28;20050;-75
2022/09/28 03:03:51;;;;;;;47.92;16.45;;;7.60;99.90;;;;;;4989935;28;20050;-79
2022/09/28 03:06:49;;;;;;;53.00;15.73;;;7.60;99.90;;;;;;5015912;28;20110;-79
2022/09/28 03:09:22;;;;;;;50.95;16.17;;;7.60;99.90;;;;;;5002614;28;20370;-75
2022/09/28 03:11:59;;;;;;;45.17;15.60;;;7.60;99.90;;;;;;4996237;28;20061;-75
2022/09/28 03:14:24;;;;;;;;;;;7.70;99.90;;;;;;4998688;28;20046;-74
2022/09/28 03:16:50;;;;;;;42.03;13.70;;;7.60;99.90;;;;;;5002325;28;20319;-75
2022/09/28 03:19:20;;;;;;;44.00;14.25;;;8.00;99.90;;;;;;5006957;28;20048;-76
2022/09/28 03:21:45;;;;;;;45.15;14.02;;;7.60;99.90;;;;;;5010185;28;20082;-75
2022/09/28 03:24:12;;;;;;;42.88;13.90;;;7.70;99.90;;;;;;4995069;28;20418;-77
2022/09/28 03:26:38;;;;;;;45.53;14.27;;;7.70;99.90;;;;;;5010852;28;20046;-77
2022/09/28 03:29:04;;;;;;;40.13;14.85;;;7.80;99.90;;;;;;5010952;28;20332;-76
2022/09/28 03:31:29;;;;;;;47.63;15.93;;;7.80;99.90;;;;;;4988052;28;20046;-75
2022/09/28 03:33:55;;;;;;;45.63;15.10;;;7.80;99.90;;;;;;5009873;28;20061;-79
2022/09/28 03:36:21;;;;;;;46.08;15.38;;;8.00;99.90;;;;;;5004265;28;20038;-76
2022/09/28 03:38:47;;;;;;;51.55;16.15;;;8.00;99.90;;;;;;5001580;28;20113;-75
2022/09/28 03:41:13;;;;;;;50.00;17.08;;;8.10;99.90;;;;;;4982194;28;20049;-76
2022/09/28 03:43:39;;;;;;;56.25;17.00;;;8.10;99.90;;;;;;4983729;28;20049;-75
2022/09/28 03:46:05;;;;;;;56.22;18.17;;;8.30;99.90;;;;;;5012327;28;20042;-74
2022/09/28 03:48:33;;;;;;;52.00;17.00;;;8.10;99.90;;;;;;5007757;28;20054;-75
2022/09/28 03:51:01;;;;;;;64.57;18.30;;;7.90;99.90;;;;;;4995674;28;20081;-76
2022/09/28 03:53:28;;;;;;;56.10;17.98;;;8.20;99.90;;;;;;5008965;28;20078;-79
2022/09/28 03:55:54;;;;;;;;;;;8.10;99.90;;;;;;4990749;28;20088;-76
2022/09/28 03:58:22;;;;;;;61.23;18.57;;;8.10;99.90;;;;;;5003749;28;19922;-74
2022/09/28 04:00:48;;;;;;;64.85;18.13;;;8.30;99.90;;;;;;5001961;28;20089;-76
2022/09/28 04:03:14;;;;;;;60.80;18.10;;;8.20;99.90;;;;;;5003901;28;20121;-77
2022/09/28 04:05:51;;;;;;;65.72;17.27;;;8.20;99.90;;;;;;4987854;28;20078;-74
2022/09/28 04:08:17;;;;;;;70.07;18.83;;;8.10;99.90;;;;;;4987829;28;20088;-74
2022/09/28 04:10:43;;;;;;;58.42;18.38;;;8.20;99.90;;;;;;4987184;28;20063;-78
2022/09/28 04:13:09;;;;;;;57.83;18.10;;;8.20;99.90;;;;;;5002733;28;20072;-76
2022/09/28 04:15:37;;;;;;;61.30;19.40;;;8.40;99.90;;;;;;5001055;28;20082;-75
2022/09/28 04:18:04;;;;;;;56.33;18.92;;;8.20;99.90;;;;;;5000431;28;20050;-75
2022/09/28 04:20:30;;;;;;;69.55;19.95;;;8.20;99.90;;;;;;4998174;28;20054;-76
2022/09/28 04:22:57;;;;;;;72.57;20.92;;;8.20;99.90;;;;;;4981208;28;20046;-75
2022/09/28 04:25:22;;;;;;;75.00;19.75;;;8.20;99.90;;;;;;4997712;28;20395;-76
2022/09/28 04:30:33;;;;;;;73.20;18.90;;;8.10;99.90;;;;;;4982712;28;20090;-75
2022/09/28 04:32:59;;;;;;;90.10;20.02;;;8.10;99.90;;;;;;4998057;28;20053;-74
2022/09/28 04:35:25;;;;;;;79.88;19.02;;;8.30;99.90;;;;;;4999028;28;20038;-74
2022/09/28 04:37:51;;;;;;;134.00;21.05;;;8.10;99.90;;;;;;4997762;28;20053;-78
2022/09/28 04:40:16;;;;;;;155.05;21.70;;;8.10;99.90;;;;;;4996997;28;20129;-76
2022/09/28 04:42:42;;;;;;;213.40;21.25;;;8.20;99.90;;;;;;4979833;28;20359;-75
2022/09/28 04:45:08;;;;;;;142.25;20.77;;;8.30;99.90;;;;;;4995174;28;20054;-75
2022/09/28 04:47:34;;;;;;;74.75;18.80;;;8.10;99.90;;;;;;4996258;28;20104;-75
2022/09/28 04:49:59;;;;;;;124.68;19.20;;;8.30;99.90;;;;;;4996190;28;20042;-76
2022/09/28 04:52:26;;;;;;;140.45;20.60;;;8.10;99.90;;;;;;4996322;28;20434;-77
2022/09/28 04:54:51;;;;;;;84.22;18.42;;;8.10;99.90;;;;;;4995161;28;20375;-74
2022/09/28 04:57:17;;;;;;;183.52;21.02;;;8.20;99.90;;;;;;4995924;28;20104;-75
2022/09/28 04:59:43;;;;;;;228.13;19.85;;;8.00;99.90;;;;;;4995406;28;20049;-76
2022/09/28 05:02:10;;;;;;;131.02;18.58;;;8.10;99.90;;;;;;4995706;28;20054;-76
2022/09/28 05:04:36;;;;;;;147.73;18.17;;;8.10;99.90;;;;;;4996426;28;20156;-79
2022/09/28 05:07:02;;;;;;;224.52;20.90;;;8.00;99.90;;;;;;4996070;28;20082;-75
2022/09/28 05:09:27;;;;;;;182.77;19.13;;;8.00;99.90;;;;;;4995291;28;20057;-75
2022/09/28 05:11:53;;;;;;;139.75;17.33;;;8.30;99.90;;;;;;4994565;28;20046;-75
2022/09/28 05:14:22;;;;;;;185.45;19.10;;;8.00;99.90;;;;;;4994449;28;20050;-75
2022/09/28 05:16:48;;;;;;;227.15;20.70;;;7.90;99.90;;;;;;4995497;28;20082;-75
2022/09/28 05:19:13;;;;;;;155.68;18.67;;;8.10;99.90;;;;;;4994718;28;20086;-75
2022/09/28 05:21:43;;;;;;;129.38;17.40;;;8.20;99.90;;;;;;4994357;28;20132;-74
2022/09/28 05:24:10;;;;;;;196.40;18.33;;;7.90;99.90;;;;;;4994613;28;20086;-75
2022/09/28 05:26:35;;;;;;;214.65;19.73;;;8.00;99.90;;;;;;4993337;28;20455;-75
2022/09/28 05:29:01;;;;;;;302.02;23.52;;;8.00;99.90;;;;;;4993946;28;20046;-76
2022/09/28 05:31:27;;;;;;;103.30;16.55;;;8.40;99.90;;;;;;4977831;28;20065;-75
2022/09/28 05:33:52;;;;;;;194.18;20.52;;;7.90;99.90;;;;;;4961694;28;20422;-75
2022/09/28 05:36:19;;;;;;;206.90;18.02;;;8.10;99.90;;;;;;4994859;28;20050;-75
2022/09/28 05:38:45;;;;;;;148.23;18.23;;;7.80;99.90;;;;;;4993368;28;20128;-80
2022/09/28 05:41:11;;;;;;;162.40;18.55;;;7.90;99.90;;;;;;4993880;28;20050;-75
2022/09/28 05:43:37;;;;;;;116.78;18.50;;;8.30;99.90;;;;;;4995570;28;20038;-75
2022/09/28 05:46:06;;;;;;;129.63;17.90;;;7.90;99.90;;;;;;4993042;28;20042;-76
2022/09/28 05:48:32;;;;;;;111.32;16.00;;;7.80;99.90;;;;;;4993527;28;20053;-75
2022/09/28 05:50:58;;;;;;;85.97;17.02;;;8.00;99.90;;;;;;4994012;28;20561;-76
2022/09/28 05:53:24;;;;;;;93.53;17.13;;;7.80;99.90;;;;;;4993421;28;20095;-75
2022/09/28 05:55:50;;;;;;;111.40;18.50;;;8.00;99.90;;;;;;4993662;28;20054;-74
2022/09/28 05:58:16;;;;;;;188.38;20.58;;;7.90;99.90;;;;;;4995673;28;20371;-74
2022/09/28 06:00:42;;;;;;;98.00;16.08;;;7.90;99.90;;;;;;5009337;28;20141;-77
2022/09/28 06:03:11;;;;;;;126.72;16.92;;;7.90;99.90;;;;;;5009766;28;20057;-73
2022/09/28 06:05:38;;;;;;;124.32;16.90;;;7.90;99.90;;;;;;4987775;28;20136;-73
2022/09/28 06:08:05;;;;;;;138.38;16.48;;;7.90;99.90;;;;;;4998458;28;20046;-75
2022/09/28 06:10:32;;;;;;;156.02;18.33;;;8.20;99.90;;;;;;4996491;28;20050;-74
2022/09/28 06:12:58;;;;;;;179.90;20.58;;;8.00;99.90;;;;;;4995573;28;20081;-75
2022/09/28 06:15:27;;;;;;;285.15;22.20;;;7.90;99.90;;;;;;4977395;28;20042;-74
2022/09/28 06:18:02;;;;;;;92.72;18.00;;;8.00;99.90;;;;;;4993591;28;20070;-74
2022/09/28 06:20:31;;;;;;;130.55;18.05;;;8.20;99.90;;;;;;4993786;28;20050;-75
2022/09/28 06:22:57;;;;;;;105.72;17.17;;;8.10;99.90;;;;;;4992750;28;20086;-74
2022/09/28 06:25:23;;;;;;;132.55;17.80;;;8.10;99.90;;;;;;4993712;28;20498;-74
2022/09/28 06:28:00;;;;;;;96.50;17.07;;;8.10;99.90;;;;;;4994149;28;20046;-75
2022/09/28 06:30:28;;;;;;;101.10;17.23;;;8.10;99.90;;;;;;4993472;28;20574;-75
2022/09/28 06:32:55;;;;;;;91.93;17.30;;;8.40;99.90;;;;;;4994154;28;20130;-75
2022/09/28 06:35:23;;;;;;;88.32;17.85;;;8.30;99.90;;;;;;4992551;28;20038;-73
2022/09/28 06:37:49;;;;;;;74.90;15.90;;;8.30;99.90;;;;;;4992424;28;20065;-82
2022/09/28 06:40:14;;;;;;;68.20;16.55;;;8.50;99.90;;;;;;4993575;28;20046;-74
2022/09/28 06:42:41;;;;;;;78.90;15.67;;;8.30;99.90;;;;;;4993577;28;20050;-74
2022/09/28 06:45:07;;;;;;;59.15;15.70;;;8.50;99.90;;;;;;4992042;28;20053;-76
2022/09/28 06:47:33;;;;;;;84.18;17.00;;;8.50;99.90;;;;;;4993588;28;20046;-75
2022/09/28 06:49:59;;;;;;;53.75;16.17;;;8.50;99.90;;;;;;4992400;28;20066;-75
2022/09/28 06:52:24;;;;;;;59.47;16.52;;;8.50;99.90;;;;;;4993933;28;20042;-74
2022/09/28 06:54:51;;;;;;;61.40;17.48;;;8.50;99.90;;;;;;4996060;28;20061;-76
2022/09/28 06:57:16;;;;;;;52.05;15.77;;;8.60;99.90;;;;;;4980179;28;20057;-78
2022/09/28 06:59:42;;;;;;;55.58;16.42;;;8.70;99.90;;;;;;4998101;28;20042;-74
2022/09/28 07:02:15;;;;;;;57.20;15.75;;;8.80;99.90;;;;;;4996256;28;20099;-75
2022/09/28 07:04:41;;;;;;;72.25;16.75;;;8.90;99.90;;;;;;4995602;28;20482;-75
2022/09/28 07:07:09;;;;;;;55.97;15.70;;;9.00;99.90;;;;;;4980289;28;20478;-75
2022/09/28 07:09:35;;;;;;;55.67;17.60;;;9.10;99.90;;;;;;4997394;28;20391;-75
2022/09/28 07:12:03;;;;;;;50.50;15.63;;;9.60;99.90;;;;;;4997893;28;20046;-75
2022/09/28 07:14:31;;;;;;;53.67;16.63;;;9.10;99.90;;;;;;4996124;28;20042;-73
2022/09/28 07:16:57;;;;;;;52.53;17.50;;;8.70;99.90;;;;;;4996716;28;20129;-75
2022/09/28 07:19:23;;;;;;;48.42;15.45;;;9.20;99.90;;;;;;4980338;28;20133;-75
2022/09/28 07:21:51;;;;;;;43.35;15.05;;;9.10;99.90;;;;;;4997810;28;20057;-74
2022/09/28 07:24:17;;;;;;;49.83;15.70;;;9.10;99.90;;;;;;4996423;28;20062;-77
2022/09/28 07:26:44;;;;;;;53.05;16.63;;;9.00;99.90;;;;;;4996250;28;20042;-75
2022/09/28 07:29:11;;;;;;;43.67;14.80;;;9.20;99.90;;;;;;4996846;28;20057;-74
2022/09/28 07:31:38;;;;;;;56.58;17.88;;;9.20;99.90;;;;;;4997683;28;20061;-75
2022/09/28 07:34:04;;;;;;;50.75;17.13;;;9.20;99.90;;;;;;4995514;28;20085;-74
2022/09/28 07:36:34;;;;;;;54.05;16.33;;;9.30;99.90;;;;;;4995926;28;20061;-77
2022/09/28 07:39:00;;;;;;;56.63;18.10;;;9.30;99.90;;;;;;4997064;28;20053;-76
2022/09/28 07:41:33;;;;;;;57.85;18.33;;;9.30;99.90;;;;;;4997656;28;20058;-75
2022/09/28 07:44:06;;;;;;;50.50;16.58;;;9.40;99.90;;;;;;5007663;28;20063;-80
2022/09/28 07:46:32;;;;;;;48.05;17.17;;;9.50;99.90;;;;;;5008712;28;20109;-74
2022/09/28 07:48:58;;;;;;;52.55;17.70;;;9.60;99.90;;;;;;5006522;28;20051;-76
2022/09/28 07:51:24;;;;;;;49.42;16.90;;;9.60;99.90;;;;;;5003606;28;20056;-80
2022/09/28 07:53:52;;;;;;;53.35;17.15;;;9.60;99.90;;;;;;4997386;28;20043;-75
2022/09/28 07:56:19;;;;;;;50.58;15.70;;;9.60;99.90;;;;;;4998167;28;20138;-76
2022/09/28 07:58:46;;;;;;;46.00;15.60;;;9.90;99.90;;;;;;5000311;28;20433;-76
2022/09/28 08:01:15;;;;;;;;;;;10.10;99.90;;;;;;4996551;28;20117;-75
2022/09/28 08:03:46;;;;;;;46.67;14.90;;;10.20;99.90;;;;;;4996125;28;20318;-74
2022/09/28 08:06:16;;;;;;;44.10;14.65;;;10.50;99.90;;;;;;4979247;28;20042;-75
2022/09/28 08:08:43;;;;;;;41.35;14.35;;;10.60;99.90;;;;;;4995279;28;20046;-76
2022/09/28 08:11:14;;;;;;;44.85;15.88;;;10.70;99.90;;;;;;4996447;28;20588;-75
2022/09/28 08:13:40;;;;;;;43.08;15.15;;;10.80;99.90;;;;;;4995659;28;20097;-75
2022/09/28 08:16:07;;;;;;;39.83;14.80;;;;;;;;;;4995904;28;20108;-75
2022/09/28 08:18:34;;;;;;;44.25;16.08;;;10.90;99.90;;;;;;4996696;28;20046;-78
2022/09/28 08:23:50;;;;;;;41.92;14.52;;;10.90;99.90;;;;;;4995077;28;20069;-75
2022/09/28 08:26:16;;;;;;;37.97;13.30;;;10.90;99.90;;;;;;4995939;28;20045;-77
2022/09/28 08:28:43;;;;;;;39.63;14.52;;;11.20;99.90;;;;;;4994676;28;20054;-76
2022/09/28 08:31:09;;;;;;;41.35;13.02;;;11.10;99.90;;;;;;4995925;28;20050;-77
2022/09/28 08:33:35;;;;;;;33.08;12.35;;;11.30;99.90;;;;;;4994713;28;20449;-76
2022/09/28 08:36:03;;;;;;;34.95;13.32;;;11.50;99.90;;;;;;4994890;28;20042;-75
2022/09/28 08:38:29;;;;;;;31.75;12.70;;;11.60;99.90;;;;;;4994672;28;20046;-77
2022/09/28 08:41:03;;;;;;;36.53;13.15;;;11.70;99.90;;;;;;4994673;28;20086;-78
2022/09/28 08:44:00;;;;;;;28.60;11.20;;;11.70;99.90;;;;;;4995358;28;20050;-78
2022/09/28 08:46:40;;;;;;;34.90;12.50;;;11.90;99.90;;;;;;4995200;28;20490;-76
2022/09/28 08:49:29;;;;;;;27.88;11.05;;;11.90;99.90;;;;;;4994957;28;20066;-76
2022/09/28 08:52:22;;;;;;;28.50;10.18;;;11.70;99.90;;;;;;4995772;28;20050;-77
2022/09/28 08:55:12;;;;;;;22.98;9.20;;;11.50;99.90;;;;;;5000340;28;20054;-77
2022/09/28 08:57:51;;;;;;;23.90;9.60;;;11.60;99.90;;;;;;5007427;28;20065;-76
2022/09/28 09:00:44;;;;;;;25.88;10.55;;;11.70;99.90;;;;;;5010330;28;20050;-77
2022/09/28 09:03:14;;;;;;;28.95;10.88;;;11.80;99.90;;;;;;4997002;28;20050;-78
2022/09/28 09:06:12;;;;;;;32.00;10.00;;;11.80;99.90;;;;;;4995874;28;20043;-77
2022/09/28 09:08:58;;;;;;;23.15;9.50;;;11.90;99.90;;;;;;4995868;28;20367;-82
2022/09/28 09:11:50;;;;;;;29.05;9.63;;;11.80;99.90;;;;;;4994282;28;20053;-77
2022/09/28 09:14:32;;;;;;;22.95;8.05;;;11.70;99.90;;;;;;4995657;28;20308;-77
2022/09/28 09:17:10;;;;;;;19.48;8.30;;;11.70;99.90;;;;;;4994057;28;20435;-77
2022/09/28 09:20:13;;;;;;;24.77;9.45;;;11.90;99.90;;;;;;4994332;28;20049;-77
2022/09/28 09:22:45;;;;;;;20.92;8.73;;;12.10;99.90;;;;;;4973456;28;20093;-77
2022/09/28 09:25:17;;;;;;;21.63;7.80;;;12.40;99.90;;;;;;5010079;28;20054;-75
2022/09/28 09:28:04;;;;;;;23.35;8.35;;;12.70;99.90;;;;;;4994084;28;20061;-76
2022/09/28 09:30:56;;;;;;;22.10;7.63;;;12.80;99.90;;;;;;4994699;28;20046;-77
2022/09/28 09:33:35;;;;;;;15.27;5.55;;;12.60;99.90;;;;;;4994007;28;20054;-77
2022/09/28 09:36:19;;;;;;;13.20;5.25;;;12.90;99.90;;;;;;4994845;28;20046;-78
2022/09/28 09:39:03;;;;;;;15.98;6.07;;;;;;;;;;4994813;28;20046;-79
2022/09/28 09:41:48;;;;;;;13.48;5.88;;;12.70;99.90;;;;;;4993495;28;20145;-77
2022/09/28 09:44:44;;;;;;;18.98;5.65;;;12.70;99.90;;;;;;4995905;28;20069;-77
2022/09/28 09:47:11;;;;;;;;;;;12.70;99.90;;;;;;4992990;28;20058;-78
2022/09/28 09:49:48;;;;;;;13.80;5.13;;;12.50;99.90;;;;;;5011128;28;19929;-79
2022/09/28 09:52:26;;;;;;;13.90;5.38;;;12.50;99.90;;;;;;4994625;28;20112;-81
2022/09/28 09:55:04;;;;;;;12.75;4.60;;;12.40;99.90;;;;;;4995660;28;20170;-75
2022/09/28 09:57:38;;;;;;;9.73;4.18;;;12.50;99.90;;;;;;4998556;28;20046;-77
2022/09/28 10:00:12;;;;;;;10.88;4.43;;;12.60;99.90;;;;;;4996264;28;20138;-77
2022/09/28 10:02:38;;;;;;;14.38;4.03;;;12.70;99.90;;;;;;4997128;28;20053;-76
2022/09/28 10:05:33;;;;;;;14.35;4.43;;;12.80;99.90;;;;;;4995321;28;20097;-76
2022/09/28 10:08:11;;;;;;;14.50;4.82;;;12.90;99.90;;;;;;4996684;28;20050;-77
2022/09/28 10:10:50;;;;;;;11.38;4.75;;;13.00;99.90;;;;;;4996772;28;20050;-79
2022/09/28 10:13:16;;;;;;;10.60;4.68;;;13.00;99.90;;;;;;4982554;28;20116;-77
2022/09/28 10:15:44;;;;;;;10.73;4.07;;;13.10;99.90;;;;;;5001366;28;20425;-77
2022/09/28 10:18:13;;;;;;;12.48;4.10;;;13.00;99.90;;;;;;4983073;28;20128;-78
2022/09/28 10:20:42;;;;;;;11.63;4.63;;;13.20;99.90;;;;;;4997418;28;20354;-79
2022/09/28 10:23:29;;;;;;;9.55;3.30;;;13.20;99.90;;;;;;4995423;28;20047;-76
2022/09/28 10:26:22;;;;;;;;;;;13.30;99.90;;;;;;4995142;28;20042;-78
2022/09/28 10:28:55;;;;;;;5.35;1.50;;;13.40;99.90;;;;;;4993420;28;20286;-76
2022/09/28 10:31:37;;;;;;;7.40;2.33;;;13.40;99.90;;;;;;5011931;28;20056;-77
2022/09/28 10:34:05;;;;;;;7.60;3.08;;;13.50;99.90;;;;;;4998725;28;20124;-76
2022/09/28 10:36:41;;;;;;;11.05;3.00;;;13.60;99.90;;;;;;4997538;28;20061;-76
2022/09/28 10:39:23;;;;;;;10.43;2.63;;;13.80;99.90;;;;;;5002564;28;20038;-76
2022/09/28 10:41:49;;;;;;;5.53;1.70;;;14.00;99.90;;;;;;4985588;28;20128;-77
2022/09/28 10:44:17;;;;;;;6.78;1.90;;;14.20;99.90;;;;;;4999498;28;20050;-76
2022/09/28 10:46:53;;;;;;;6.93;2.40;;;14.30;99.90;;;;;;4997833;28;20383;-77
2022/09/28 10:49:21;;;;;;;6.45;1.65;;;14.40;99.90;;;;;;4995303;28;20386;-77
2022/09/28 10:51:48;;;;;;;5.10;2.08;;;14.30;99.90;;;;;;4998502;28;20403;-76
2022/09/28 10:54:18;;;;;;;5.70;2.03;;;14.40;99.90;;;;;;4996618;28;20074;-76
2022/09/28 10:56:45;;;;;;;4.80;1.17;;;14.20;99.90;;;;;;4995482;28;20050;-78
2022/09/28 10:59:29;;;;;;;4.40;0.90;;;14.30;99.90;;;;;;5000952;28;20094;-80
2022/09/28 11:02:03;;;;;;;4.95;0.95;;;14.20;99.90;;;;;;5019358;28;20050;-80
2022/09/28 11:04:37;;;;;;;8.60;1.13;;;14.20;99.90;;;;;;5005292;28;20085;-78
2022/09/28 11:07:03;;;;;;;4.60;1.10;;;14.10;99.90;;;;;;4993720;28;20057;-79
2022/09/28 11:09:32;;;;;;;5.80;1.30;;;14.10;99.90;;;;;;4994352;28;20414;-76
2022/09/28 11:11:59;;;;;;;5.28;1.85;;;13.90;99.90;;;;;;4993216;28;20046;-75
2022/09/28 11:14:37;;;;;;;6.80;1.42;;;14.00;99.90;;;;;;4992968;28;20054;-77
2022/09/28 11:17:28;;;;;;;6.65;1.75;;;14.30;99.90;;;;;;5003743;28;20050;-77
2022/09/28 11:20:24;;;;;;;3.92;1.13;;;14.30;99.90;;;;;;4996806;28;20149;-77
2022/09/28 11:22:52;;;;;;;4.40;1.30;;;14.60;99.90;;;;;;4996402;28;20125;-79
2022/09/28 11:25:17;;;;;;;5.25;1.10;;;14.70;99.90;;;;;;4995332;28;20050;-77
2022/09/28 11:27:52;;;;;;;5.57;1.63;;;14.90;99.90;;;;;;4995556;28;20042;-77
2022/09/28 11:30:25;;;;;;;4.53;1.67;;;15.10;99.90;;;;;;5009082;28;20058;-77
2022/09/28 11:32:59;;;;;;;2.92;0.70;;;15.10;99.90;;;;;;4996392;28;20096;-79
2022/09/28 11:35:42;;;;;;;4.00;0.90;;;15.10;99.90;;;;;;4999356;28;20103;-78
2022/09/28 11:38:19;;;;;;;5.30;0.90;;;14.90;99.90;;;;;;5005945;28;20398;-79
2022/09/28 11:40:51;;;;;;;5.50;0.88;;;15.20;99.90;;;;;;4999639;28;20428;-76
2022/09/28 11:43:43;;;;;;;2.85;0.80;;;15.20;99.90;;;;;;5008226;28;20038;-77
2022/09/28 11:46:29;;;;;;;5.18;0.82;;;15.10;99.90;;;;;;5010936;28;20061;-77
2022/09/28 11:49:00;;;;;;;3.13;0.70;;;14.80;99.90;;;;;;5007642;28;20058;-78
2022/09/28 11:51:40;;;;;;;3.80;0.95;;;14.90;99.90;;;;;;5006236;28;20042;-76
2022/09/28 11:54:30;;;;;;;4.70;0.85;;;15.20;99.90;;;;;;4983312;28;20050;-76
2022/09/28 11:57:00;;;;;;;4.63;0.90;;;15.40;99.90;;;;;;5012482;28;20090;-77
2022/09/28 11:59:33;;;;;;;4.38;0.75;;;15.70;99.90;;;;;;5009964;28;20058;-75
2022/09/28 12:02:14;;;;;;;2.92;0.60;;;15.80;99.90;;;;;;5002575;28;20065;-77
2022/09/28 12:04:47;;;;;;;2.60;0.60;;;15.80;99.90;;;;;;5000106;28;20129;-75
2022/09/28 12:07:35;;;;;;;5.03;0.75;;;15.40;99.90;;;;;;5000028;28;20506;-77
2022/09/28 12:10:18;;;;;;;4.22;0.70;;;15.30;99.90;;;;;;5013333;28;20073;-76
2022/09/28 12:13:08;;;;;;;3.72;0.50;;;15.10;99.90;;;;;;4999278;28;20085;-78
2022/09/28 12:15:54;;;;;;;1.80;0.50;;;14.60;99.90;;;;;;5000956;28;20498;-75
2022/09/28 12:18:23;;;;;;;1.15;0.20;;;14.60;99.90;;;;;;4998713;28;20051;-76
2022/09/28 12:21:07;;;;;;;1.80;0.10;;;14.50;99.90;;;;;;4997452;28;20050;-75
2022/09/28 12:23:34;;;;;;;2.85;0.30;;;14.20;99.90;;;;;;5013698;28;20046;-76
2022/09/28 12:26:19;;;;;;;1.27;0.10;;;13.90;99.90;;;;;;4997811;28;20410;-80
2022/09/28 12:28:48;;;;;;;2.78;0.10;;;13.80;99.90;;;;;;4997663;28;20057;-77
2022/09/28 12:31:20;;;;;;;0.75;0.00;;;13.80;99.90;;;;;;5013434;28;20086;-76
2022/09/28 12:33:49;;;;;;;0.35;0.00;;;13.80;99.90;;;;;;4997223;28;20047;-78
2022/09/28 12:36:29;;;;;;;2.72;0.10;;;13.80;99.90;;;;;;4997308;28;20104;-76
2022/09/28 12:39:00;;;;;;;1.30;0.25;;;13.60;99.90;;;;;;4998163;28;20147;-77
2022/09/28 12:42:04;;;;;;;3.00;0.50;;;13.50;99.90;;;;;;4997812;28;20359;-78
2022/09/28 12:44:42;;;;;;;1.85;0.40;;;13.60;99.90;;;;;;4996448;28;20058;-76
2022/09/28 12:47:47;;;;;;;1.60;0.30;;;13.70;99.90;;;;;;4997355;28;20082;-77
2022/09/28 12:50:36;;;;;;;2.85;0.50;;;13.70;99.90;;;;;;4986517;28;20499;-78
2022/09/28 12:53:53;;;;;;;3.38;0.30;;;13.70;99.90;;;;;;4996775;28;20129;-78
2022/09/28 12:56:30;;;;;;;2.42;0.30;;;13.70;99.90;;;;;;5009449;28;20081;-76
2022/09/28 12:59:06;;;;;;;0.90;0.20;;;13.60;99.90;;;;;;5010507;28;20102;-76
2022/09/28 13:01:56;;;;;;;2.38;0.30;;;13.50;99.90;;;;;;5010689;28;20054;-76
2022/09/28 13:04:49;;;;;;;0.95;0.25;;;13.40;99.90;;;;;;5007702;28;20046;-77
2022/09/28 13:07:18;;;;;;;2.20;0.30;;;13.30;99.90;;;;;;5009412;28;20049;-76
2022/09/28 13:09:53;;;;;;;3.25;0.50;;;13.30;99.90;;;;;;5008725;28;20105;-74
2022/09/28 13:19:37;;;;;;;2.05;0.30;;;13.00;99.90;;;;;;4988647;28;20077;-75
2022/09/28 13:22:29;;;;;;;1.98;0.40;;;13.00;99.90;;;;;;4995452;28;20077;-76
2022/09/28 13:25:00;;;;;;;0.50;0.20;;;12.90;99.90;;;;;;4993902;28;20065;-74